Time;durP1;ratioP1;P1;durP2;ratioP2;P2;SDS_P1;SDS_P2;PMS_P1;PMS_P2;Temp;Humidity;BMP_temperature;BMP_pressure;BME280_temperature;BME280_humidity;BME280_pressure;Samples;Min_cycle;Max_cycle;Signal;HPM_P1;HPM_P2
2021/10/15 00:03:46;;;;;;;9.02;3.67;;;;;;;;;;21079383;28;20526;-63
2021/10/15 00:13:48;;;;;;;8.60;6.03;;;;;;;;;;21079954;28;20052;-65
2021/10/15 00:23:49;;;;;;;9.27;4.63;;;;;;;;;;21079026;28;20079;-62
2021/10/15 00:33:51;;;;;;;7.55;4.43;;;;;;;;;;21078480;28;20047;-63
2021/10/15 00:44:04;;;;;;;5.63;3.80;;;;;;;;;;21077606;28;20048;-65
2021/10/15 00:54:06;;;;;;;8.63;4.63;;;;;;;;;;21077847;28;20079;-61
2021/10/15 01:04:08;;;;;;;8.38;4.75;;;;;;;;;;21077046;28;20084;-61
2021/10/15 01:14:11;;;;;;;7.93;4.78;;;;;;;;;;21077667;28;20468;-61
2021/10/15 01:24:14;;;;;;;11.03;4.17;;;;;;;;;;21091660;28;20048;-62
2021/10/15 01:34:16;;;;;;;7.13;4.57;;;;;;;;;;21090317;28;20395;-63
2021/10/15 01:44:23;;;;;;;9.45;5.22;;;;;;;;;;21090104;28;20048;-63
2021/10/15 01:54:28;;;;;;;7.10;4.80;;;;;;;;;;21093673;28;20056;-63
2021/10/15 02:04:32;;;;;;;10.30;4.90;;;;;;;;;;21088403;28;20044;-63
2021/10/15 02:14:38;;;;;;;7.07;4.70;;;;;;;;;;21087009;28;20085;-64
2021/10/15 02:24:43;;;;;;;7.22;4.88;;;;;;;;;;21086532;28;20193;-63
2021/10/15 02:34:47;;;;;;;9.50;5.10;;;;;;;;;;21085717;28;20530;-63
2021/10/15 02:44:48;;;;;;;7.90;5.03;;;;;;;;;;21085498;28;20048;-63
2021/10/15 02:54:53;;;;;;;5.78;4.53;;;;;;;;;;21083566;28;20465;-63
2021/10/15 03:04:58;;;;;;;;;;;;;;;;;;21083395;28;20464;-63
2021/10/15 03:15:08;;;;;;;9.63;5.45;;;;;;;;;;21083031;28;20288;-64
2021/10/15 03:25:13;;;;;;;6.25;4.82;;;;;;;;;;21081735;28;20098;-63
2021/10/15 03:35:21;;;;;;;7.97;4.82;;;;;;;;;;21081031;28;20139;-64
2021/10/15 03:45:28;;;;;;;6.63;4.82;;;;;;;;;;21080847;28;20055;-63
2021/10/15 03:55:34;;;;;;;11.70;4.57;;;;;;;;;;21079492;28;20136;-65
2021/10/15 04:05:42;;;;;;;7.55;5.22;;;;;;;;;;21079451;28;20048;-64
2021/10/15 04:15:46;;;;;;;13.70;5.50;;;;;;;;;;21078722;28;20060;-65
2021/10/15 04:26:08;;;;;;;11.82;5.28;;;;;;;;;;21079149;28;20079;-62
2021/10/15 04:36:29;;;;;;;9.30;5.80;;;;;;;;;;21078455;28;20509;-64
2021/10/15 04:46:50;;;;;;;9.40;5.60;;;;;;;;;;21078619;28;20050;-66
2021/10/15 04:57:11;;;;;;;9.23;5.53;;;;;;;;;;21089682;28;20496;-63
2021/10/15 05:07:26;;;;;;;12.07;5.65;;;;;;;;;;21092652;28;20055;-64
2021/10/15 05:17:36;;;;;;;8.35;5.20;;;;;;;;;;21091827;28;20051;-64
2021/10/15 05:27:41;;;;;;;8.27;6.05;;;;;;;;;;21091666;28;20475;-65
2021/10/15 05:37:47;;;;;;;8.15;4.70;;;;;;;;;;21090585;28;20101;-61
2021/10/15 05:47:49;;;;;;;9.90;5.47;;;;;;;;;;21089232;28;20052;-62
2021/10/15 06:18:20;;;;;;;11.15;5.50;;;;;;;;;;21087449;28;20453;-63
2021/10/15 06:28:25;;;;;;;7.55;5.80;;;;;;;;;;21085633;28;20420;-63
2021/10/15 06:38:28;;;;;;;12.70;6.93;;;;;;;;;;21084805;28;20273;-61
2021/10/15 06:48:30;;;;;;;13.45;6.97;;;;;;;;;;21084837;28;20051;-66
2021/10/15 06:58:35;;;;;;;12.40;6.43;;;;;;;;;;21083790;28;20052;-62
2021/10/15 07:08:37;;;;;;;14.00;6.47;;;;;;;;;;21081420;28;20097;-62
2021/10/15 07:18:42;;;;;;;13.00;7.05;;;;;;;;;;21081608;28;20048;-62
2021/10/15 07:28:44;;;;;;;13.40;7.22;;;;;;;;;;21080836;28;20048;-63
2021/10/15 07:38:49;;;;;;;12.23;7.95;;;;;;;;;;21081760;28;20167;-65
2021/10/15 07:48:51;;;;;;;10.25;6.88;;;;;;;;;;21080068;28;20412;-63
2021/10/15 07:59:01;;;;;;;13.95;7.13;;;;;;;;;;21078103;28;20059;-63
2021/10/15 08:09:04;;;;;;;13.40;8.32;;;;;;;;;;21079427;28;20399;-63
2021/10/15 08:19:07;;;;;;;12.75;8.48;;;;;;;;;;21078716;28;20057;-62
2021/10/15 08:29:09;;;;;;;18.98;9.32;;;;;;;;;;21088673;28;20055;-63
2021/10/15 08:39:11;;;;;;;19.60;9.45;;;;;;;;;;21094441;28;20094;-61
2021/10/15 08:49:13;;;;;;;14.88;8.75;;;;;;;;;;21094059;28;20040;-66
2021/10/15 08:59:20;;;;;;;14.55;9.32;;;;;;;;;;21093155;28;20095;-60
2021/10/15 09:09:28;;;;;;;16.08;9.20;;;;;;;;;;21093089;28;20052;-64
2021/10/15 09:19:31;;;;;;;15.55;9.30;;;;;;;;;;21091030;28;20055;-60
2021/10/15 09:29:48;;;;;;;17.80;9.32;;;;;;;;;;21090743;28;20048;-61
2021/10/15 09:39:51;;;;;;;15.75;9.93;;;;;;;;;;21089281;28;20044;-63
2021/10/15 09:49:54;;;;;;;16.88;9.13;;;;;;;;;;21088494;28;20044;-62
2021/10/15 09:59:57;;;;;;;15.13;8.77;;;;;;;;;;21087959;28;20055;-64
2021/10/15 10:09:58;;;;;;;14.73;10.55;;;;;;;;;;21087324;28;20048;-65
2021/10/15 10:20:04;;;;;;;15.93;11.23;;;;;;;;;;21086390;28;20086;-61
2021/10/15 10:30:07;;;;;;;35.58;25.67;;;;;;;;;;21085711;28;20404;-64
2021/10/15 10:40:09;;;;;;;15.43;12.13;;;;;;;;;;21084880;28;20151;-62
2021/10/15 10:50:12;;;;;;;19.30;11.93;;;;;;;;;;21083847;28;20047;-61
2021/10/15 11:00:20;;;;;;;11.50;5.20;;;;;;;;;;21083838;28;20051;-70
2021/10/15 11:10:22;;;;;;;16.35;9.70;;;;;;;;;;21082543;28;20066;-63
2021/10/15 11:20:26;;;;;;;14.10;9.15;;;;;;;;;;21082336;28;20419;-63
2021/10/15 11:30:30;;;;;;;16.35;9.70;;;;;;;;;;21080593;28;20487;-64
2021/10/15 11:40:39;;;;;;;15.07;8.25;;;;;;;;;;21081796;28;20544;-63
2021/10/15 11:50:44;;;;;;;15.63;8.80;;;;;;;;;;21079609;28;20052;-63
2021/10/15 12:01:00;;;;;;;12.82;8.93;;;;;;;;;;21078665;28;20060;-62
2021/10/15 12:11:02;;;;;;;17.27;7.85;;;;;;;;;;21079533;28;20047;-62
2021/10/15 12:21:11;;;;;;;14.45;7.55;;;;;;;;;;21078681;28;20048;-62
2021/10/15 12:31:26;;;;;;;11.32;7.13;;;;;;;;;;21078397;28;20055;-63
2021/10/15 12:41:29;;;;;;;11.15;6.22;;;;;;;;;;21077697;28;20055;-64
2021/10/15 12:51:39;;;;;;;8.18;4.80;;;;;;;;;;21078555;28;20488;-64
2021/10/15 13:01:43;;;;;;;10.68;6.22;;;;;;;;;;21075378;28;20044;-62
2021/10/15 13:11:45;;;;;;;8.80;5.68;;;;;;;;;;21078366;28;20502;-64
2021/10/15 13:21:47;;;;;;;7.25;5.20;;;;;;;;;;21089921;28;20048;-65
2021/10/15 13:31:49;;;;;;;8.30;4.82;;;;;;;;;;21089650;28;20469;-64
2021/10/15 13:52:06;;;;;;;14.68;9.20;;;;;;;;;;21088871;28;20052;-64
2021/10/15 14:02:10;;;;;;;7.22;4.22;;;;;;;;;;21088228;28;20055;-65
2021/10/15 14:12:13;;;;;;;7.28;4.45;;;;;;;;;;21088029;28;20135;-64
2021/10/15 14:22:16;;;;;;;8.55;4.57;;;;;;;;;;21086587;28;20044;-64
2021/10/15 14:32:18;;;;;;;;;;;;;;;;;;21086496;28;20062;-67
2021/10/15 14:42:21;;;;;;;4.10;3.20;;;;;;;;;;21084929;28;20279;-64
2021/10/15 14:52:23;;;;;;;7.60;4.43;;;;;;;;;;21083972;28;20139;-63
2021/10/15 15:02:26;;;;;;;9.27;4.63;;;;;;;;;;21084544;28;20297;-63
2021/10/15 15:12:28;;;;;;;7.40;3.70;;;;;;;;;;21082805;28;20040;-65
2021/10/15 15:22:30;;;;;;;6.22;3.42;;;;;;;;;;21064731;28;20139;-63
2021/10/15 15:32:40;;;;;;;5.30;3.20;;;;;;;;;;21080601;28;20083;-61
2021/10/15 15:42:42;;;;;;;6.60;3.53;;;;;;;;;;21079387;28;20051;-65
2021/10/15 15:52:45;;;;;;;4.72;3.85;;;;;;;;;;21080966;28;20048;-60
2021/10/15 16:02:47;;;;;;;7.20;4.07;;;;;;;;;;21084170;28;20512;-66
2021/10/15 16:12:51;;;;;;;6.20;3.90;;;;;;;;;;21083325;28;20048;-62
2021/10/15 16:22:53;;;;;;;5.05;3.50;;;;;;;;;;21087214;28;20049;-58
2021/10/15 16:32:55;;;;;;;4.85;3.08;;;;;;;;;;21077728;28;20478;-64
2021/10/15 16:42:57;;;;;;;12.57;8.18;;;;;;;;;;21077655;28;20082;-57
2021/10/15 16:52:59;;;;;;;7.13;4.53;;;;;;;;;;21090669;28;20048;-61
2021/10/15 17:03:01;;;;;;;6.68;4.18;;;;;;;;;;21092751;28;20040;-57
2021/10/15 17:13:03;;;;;;;6.57;4.30;;;;;;;;;;21091692;28;20052;-66
2021/10/15 17:23:06;;;;;;;7.60;4.57;;;;;;;;;;21092334;28;20067;-62
2021/10/15 17:33:08;;;;;;;7.07;4.07;;;;;;;;;;21092500;28;20059;-64
2021/10/15 17:43:10;;;;;;;8.05;4.78;;;;;;;;;;21091778;28;20051;-61
2021/10/15 17:53:12;;;;;;;11.18;5.38;;;;;;;;;;21091423;28;20052;-67
2021/10/15 18:03:13;;;;;;;7.18;5.38;;;;;;;;;;21087572;28;20531;-63
2021/10/15 18:13:15;;;;;;;8.70;5.00;;;;;;;;;;21090438;28;20536;-63
2021/10/15 18:23:17;;;;;;;9.00;5.97;;;;;;;;;;21086800;28;20054;-67
2021/10/15 18:33:19;;;;;;;9.82;5.80;;;;;;;;;;21085528;28;20056;-64
2021/10/15 18:43:21;;;;;;;10.52;6.45;;;;;;;;;;21084902;28;20086;-66
2021/10/15 18:53:23;;;;;;;11.63;6.28;;;;;;;;;;21083400;28;20091;-65
2021/10/15 19:03:24;;;;;;;15.45;7.13;;;;;;;;;;21083501;28;20055;-67
2021/10/15 19:13:27;;;;;;;10.40;6.25;;;;;;;;;;21081802;28;20048;-65
2021/10/15 19:23:37;;;;;;;10.60;6.27;;;;;;;;;;21083819;28;20047;-67
2021/10/15 19:33:39;;;;;;;12.07;7.28;;;;;;;;;;21089417;28;20420;-64
2021/10/15 19:43:49;;;;;;;7.50;4.95;;;;;;;;;;21103725;28;20089;-64
2021/10/15 19:53:51;;;;;;;11.98;5.40;;;;;;;;;;21086495;28;20060;-66
2021/10/15 20:03:53;;;;;;;10.15;5.40;;;;;;;;;;21081839;28;20051;-66
2021/10/15 20:13:55;;;;;;;10.77;5.93;;;;;;;;;;21079585;28;20097;-66
2021/10/15 20:24:03;;;;;;;8.80;5.40;;;;;;;;;;21086395;28;20047;-65
2021/10/15 20:34:07;;;;;;;10.35;5.15;;;;;;;;;;21094985;28;20123;-67
2021/10/15 20:44:08;;;;;;;;;;;;;;;;;;21095462;28;20040;-67
2021/10/15 20:54:10;;;;;;;12.38;6.03;;;;;;;;;;21105606;28;19927;-64
2021/10/15 21:04:12;;;;;;;11.80;7.68;;;;;;;;;;21103418;28;20441;-68
2021/10/15 21:14:16;;;;;;;9.90;6.07;;;;;;;;;;21093860;28;20055;-67
2021/10/15 21:24:18;;;;;;;9.60;6.40;;;;;;;;;;21092019;28;20048;-67
2021/10/15 21:34:19;;;;;;;9.32;6.60;;;;;;;;;;21089451;28;20471;-67
2021/10/15 21:44:21;;;;;;;12.80;6.40;;;;;;;;;;21090930;28;20484;-68
2021/10/15 21:54:23;;;;;;;10.55;5.93;;;;;;;;;;21089353;28;20403;-68
2021/10/15 22:04:28;;;;;;;12.27;6.63;;;;;;;;;;21088777;28;20407;-66
2021/10/15 22:14:30;;;;;;;10.93;5.20;;;;;;;;;;21087735;28;20083;-67
2021/10/15 22:24:32;;;;;;;7.15;5.00;;;;;;;;;;21087764;28;20044;-66
2021/10/15 22:34:34;;;;;;;7.18;5.32;;;;;;;;;;21087462;28;20051;-69
2021/10/15 22:44:35;;;;;;;6.57;4.60;;;;;;;;;;21086570;28;20082;-67
2021/10/15 22:54:38;;;;;;;13.43;7.28;;;;;;;;;;21085322;28;20048;-67
2021/10/15 23:04:40;;;;;;;7.00;4.90;;;;;;;;;;21085366;28;20177;-68
2021/10/15 23:14:42;;;;;;;8.07;4.15;;;;;;;;;;21083632;28;20090;-68
2021/10/15 23:24:43;;;;;;;7.80;4.45;;;;;;;;;;21082964;28;20048;-67
2021/10/15 23:34:49;;;;;;;11.82;5.10;;;;;;;;;;21081730;28;20056;-67
2021/10/15 23:44:51;;;;;;;6.25;4.00;;;;;;;;;;21080674;28;20044;-64
2021/10/15 23:54:53;;;;;;;6.32;4.35;;;;;;;;;;21078918;28;20512;-67
